sensor_id;sensor_type;location;lat;lon;timestamp;pressure;altitude;pressure_sealevel;temperature;humidity
47753;BME280;2038;51.728;6.674;2022-11-15T00:00:57;100245.19;;;9.94;100.00
47753;BME280;2038;51.728;6.674;2022-11-15T00:03:25;100244.13;;;9.90;100.00
47753;BME280;2038;51.728;6.674;2022-11-15T00:05:53;100244.41;;;9.95;100.00
47753;BME280;2038;51.728;6.674;2022-11-15T00:08:19;100245.06;;;9.92;100.00
47753;BME280;2038;51.728;6.674;2022-11-15T00:10:56;100246.41;;;10.00;100.00
47753;BME280;2038;51.728;6.674;2022-11-15T00:13:23;100250.53;;;9.98;100.00
47753;BME280;2038;51.728;6.674;2022-11-15T00:15:49;100239.66;;;10.01;100.00
47753;BME280;2038;51.728;6.674;2022-11-15T00:18:16;100248.44;;;10.06;100.00
47753;BME280;2038;51.728;6.674;2022-11-15T00:20:44;100245.72;;;10.03;100.00
47753;BME280;2038;51.728;6.674;2022-11-15T00:23:10;100249.94;;;10.02;100.00
47753;BME280;2038;51.728;6.674;2022-11-15T00:25:37;100245.19;;;10.08;100.00
47753;BME280;2038;51.728;6.674;2022-11-15T00:28:03;100244.78;;;10.15;100.00
47753;BME280;2038;51.728;6.674;2022-11-15T00:30:30;100244.66;;;10.27;100.00
47753;BME280;2038;51.728;6.674;2022-11-15T00:32:56;100237.81;;;10.13;100.00
47753;BME280;2038;51.728;6.674;2022-11-15T00:35:27;100233.16;;;10.19;100.00
47753;BME280;2038;51.728;6.674;2022-11-15T00:37:53;100231.06;;;10.13;100.00
47753;BME280;2038;51.728;6.674;2022-11-15T00:40:19;100226.63;;;10.24;100.00
47753;BME280;2038;51.728;6.674;2022-11-15T00:42:46;100225.34;;;10.30;100.00
47753;BME280;2038;51.728;6.674;2022-11-15T00:45:12;100224.88;;;10.23;100.00
47753;BME280;2038;51.728;6.674;2022-11-15T00:47:37;100224.97;;;10.24;100.00
47753;BME280;2038;51.728;6.674;2022-11-15T00:50:04;100218.81;;;10.21;100.00
47753;BME280;2038;51.728;6.674;2022-11-15T00:52:30;100221.63;;;10.25;100.00
47753;BME280;2038;51.728;6.674;2022-11-15T00:54:56;100221.19;;;10.32;100.00
47753;BME280;2038;51.728;6.674;2022-11-15T00:57:22;100213.53;;;10.32;100.00
47753;BME280;2038;51.728;6.674;2022-11-15T00:59:48;100217.69;;;10.30;100.00
47753;BME280;2038;51.728;6.674;2022-11-15T01:02:15;100219.53;;;10.33;100.00
47753;BME280;2038;51.728;6.674;2022-11-15T01:04:41;100212.75;;;10.33;100.00
47753;BME280;2038;51.728;6.674;2022-11-15T01:07:07;100213.53;;;10.32;100.00
47753;BME280;2038;51.728;6.674;2022-11-15T01:09:33;100207.94;;;10.38;100.00
47753;BME280;2038;51.728;6.674;2022-11-15T01:11:59;100203.28;;;10.46;100.00
47753;BME280;2038;51.728;6.674;2022-11-15T01:14:26;100197.19;;;10.44;100.00
47753;BME280;2038;51.728;6.674;2022-11-15T01:16:52;100200.72;;;10.46;100.00
47753;BME280;2038;51.728;6.674;2022-11-15T01:19:18;100194.66;;;10.44;100.00
47753;BME280;2038;51.728;6.674;2022-11-15T01:21:45;100201.69;;;10.48;100.00
47753;BME280;2038;51.728;6.674;2022-11-15T01:24:14;100202.66;;;10.50;100.00
47753;BME280;2038;51.728;6.674;2022-11-15T01:26:40;100197.22;;;10.58;100.00
47753;BME280;2038;51.728;6.674;2022-11-15T01:29:06;100195.16;;;10.67;100.00
47753;BME280;2038;51.728;6.674;2022-11-15T01:31:32;100194.03;;;10.62;100.00
47753;BME280;2038;51.728;6.674;2022-11-15T01:33:58;100191.28;;;10.59;100.00
47753;BME280;2038;51.728;6.674;2022-11-15T01:36:24;100186.19;;;10.59;100.00
47753;BME280;2038;51.728;6.674;2022-11-15T01:39:01;100183.28;;;10.68;100.00
47753;BME280;2038;51.728;6.674;2022-11-15T01:41:30;100185.06;;;10.69;100.00
47753;BME280;2038;51.728;6.674;2022-11-15T01:46:57;100188.03;;;10.76;100.00
47753;BME280;2038;51.728;6.674;2022-11-15T01:49:29;100176.66;;;10.86;100.00
47753;BME280;2038;51.728;6.674;2022-11-15T01:52:02;100169.81;;;10.85;100.00
47753;BME280;2038;51.728;6.674;2022-11-15T01:54:30;100168.31;;;10.89;100.00
47753;BME280;2038;51.728;6.674;2022-11-15T01:57:05;100165.47;;;10.99;100.00
47753;BME280;2038;51.728;6.674;2022-11-15T01:59:36;100170.50;;;11.13;100.00
47753;BME280;2038;51.728;6.674;2022-11-15T02:02:06;100170.38;;;11.26;100.00
47753;BME280;2038;51.728;6.674;2022-11-15T02:04:39;100167.84;;;11.43;100.00
47753;BME280;2038;51.728;6.674;2022-11-15T02:07:11;100169.56;;;11.44;100.00
47753;BME280;2038;51.728;6.674;2022-11-15T02:09:41;100161.75;;;11.41;100.00
47753;BME280;2038;51.728;6.674;2022-11-15T02:12:14;100159.16;;;11.39;100.00
47753;BME280;2038;51.728;6.674;2022-11-15T02:14:48;100147.03;;;11.35;100.00
47753;BME280;2038;51.728;6.674;2022-11-15T02:17:56;100152.13;;;11.35;100.00
47753;BME280;2038;51.728;6.674;2022-11-15T02:24:28;100153.16;;;11.39;100.00
47753;BME280;2038;51.728;6.674;2022-11-15T02:27:38;100147.81;;;11.34;100.00
47753;BME280;2038;51.728;6.674;2022-11-15T02:30:24;100150.66;;;11.40;100.00
47753;BME280;2038;51.728;6.674;2022-11-15T02:36:15;100150.53;;;11.53;100.00
47753;BME280;2038;51.728;6.674;2022-11-15T02:38:59;100155.72;;;11.55;100.00
47753;BME280;2038;51.728;6.674;2022-11-15T02:42:09;100150.59;;;11.71;100.00
47753;BME280;2038;51.728;6.674;2022-11-15T02:45:02;100145.69;;;11.74;100.00
47753;BME280;2038;51.728;6.674;2022-11-15T02:47:37;100146.22;;;11.85;100.00
47753;BME280;2038;51.728;6.674;2022-11-15T02:50:11;100138.53;;;11.85;100.00
47753;BME280;2038;51.728;6.674;2022-11-15T02:52:43;100139.09;;;11.95;100.00
47753;BME280;2038;51.728;6.674;2022-11-15T02:55:31;100141.06;;;12.01;100.00
47753;BME280;2038;51.728;6.674;2022-11-15T03:03:56;100139.84;;;12.28;100.00
47753;BME280;2038;51.728;6.674;2022-11-15T03:09:47;100132.56;;;12.36;100.00
47753;BME280;2038;51.728;6.674;2022-11-15T03:13:01;100136.06;;;12.38;100.00
47753;BME280;2038;51.728;6.674;2022-11-15T03:15:44;100130.09;;;12.37;100.00
47753;BME280;2038;51.728;6.674;2022-11-15T03:18:31;100124.88;;;12.36;100.00
47753;BME280;2038;51.728;6.674;2022-11-15T03:21:05;100122.66;;;12.42;100.00
47753;BME280;2038;51.728;6.674;2022-11-15T03:23:38;100125.34;;;12.45;100.00
47753;BME280;2038;51.728;6.674;2022-11-15T03:26:18;100126.31;;;12.47;100.00
47753;BME280;2038;51.728;6.674;2022-11-15T03:29:04;100123.81;;;12.48;100.00
47753;BME280;2038;51.728;6.674;2022-11-15T03:31:41;100117.09;;;12.50;100.00
47753;BME280;2038;51.728;6.674;2022-11-15T03:34:29;100119.94;;;12.56;100.00
47753;BME280;2038;51.728;6.674;2022-11-15T03:36:59;100122.94;;;12.65;100.00
47753;BME280;2038;51.728;6.674;2022-11-15T03:39:28;100116.88;;;12.63;100.00
47753;BME280;2038;51.728;6.674;2022-11-15T03:50:29;100105.91;;;12.66;100.00
47753;BME280;2038;51.728;6.674;2022-11-15T03:53:00;100111.59;;;12.60;100.00
47753;BME280;2038;51.728;6.674;2022-11-15T03:55:28;100118.97;;;12.72;100.00
47753;BME280;2038;51.728;6.674;2022-11-15T03:57:58;100117.72;;;12.64;100.00
47753;BME280;2038;51.728;6.674;2022-11-15T04:00:26;100125.41;;;12.64;100.00
47753;BME280;2038;51.728;6.674;2022-11-15T04:02:52;100118.81;;;12.69;100.00
47753;BME280;2038;51.728;6.674;2022-11-15T04:05:19;100116.84;;;12.81;100.00
47753;BME280;2038;51.728;6.674;2022-11-15T04:07:45;100119.41;;;12.81;100.00
47753;BME280;2038;51.728;6.674;2022-11-15T04:10:12;100118.38;;;12.78;100.00
47753;BME280;2038;51.728;6.674;2022-11-15T04:12:42;100113.84;;;12.72;100.00
47753;BME280;2038;51.728;6.674;2022-11-15T04:15:14;100116.34;;;12.71;100.00
47753;BME280;2038;51.728;6.674;2022-11-15T04:17:48;100114.81;;;12.74;100.00
47753;BME280;2038;51.728;6.674;2022-11-15T04:20:33;100127.88;;;12.80;100.00
47753;BME280;2038;51.728;6.674;2022-11-15T04:23:20;100123.06;;;12.86;100.00
47753;BME280;2038;51.728;6.674;2022-11-15T04:26:15;100119.75;;;12.89;100.00
47753;BME280;2038;51.728;6.674;2022-11-15T04:28:43;100117.81;;;12.83;100.00
47753;BME280;2038;51.728;6.674;2022-11-15T04:31:28;100118.31;;;12.76;100.00
47753;BME280;2038;51.728;6.674;2022-11-15T04:33:55;100120.06;;;12.77;100.00
47753;BME280;2038;51.728;6.674;2022-11-15T04:36:21;100115.81;;;12.78;100.00
47753;BME280;2038;51.728;6.674;2022-11-15T04:39:07;100112.38;;;12.77;100.00
47753;BME280;2038;51.728;6.674;2022-11-15T04:41:33;100114.06;;;12.77;100.00
47753;BME280;2038;51.728;6.674;2022-11-15T04:43:59;100125.78;;;12.72;100.00
47753;BME280;2038;51.728;6.674;2022-11-15T04:46:26;100123.72;;;12.64;100.00
47753;BME280;2038;51.728;6.674;2022-11-15T04:48:53;100111.91;;;12.66;100.00
47753;BME280;2038;51.728;6.674;2022-11-15T04:51:20;100119.44;;;12.63;100.00
47753;BME280;2038;51.728;6.674;2022-11-15T04:53:46;100116.00;;;12.63;100.00
47753;BME280;2038;51.728;6.674;2022-11-15T04:56:12;100119.44;;;12.63;100.00
47753;BME280;2038;51.728;6.674;2022-11-15T04:58:39;100115.56;;;12.72;100.00
47753;BME280;2038;51.728;6.674;2022-11-15T05:01:09;100111.78;;;12.63;100.00
47753;BME280;2038;51.728;6.674;2022-11-15T05:03:37;100109.34;;;12.66;100.00
47753;BME280;2038;51.728;6.674;2022-11-15T05:06:22;100115.78;;;12.58;100.00
47753;BME280;2038;51.728;6.674;2022-11-15T05:08:49;100112.34;;;12.58;100.00
47753;BME280;2038;51.728;6.674;2022-11-15T05:11:15;100114.81;;;12.56;100.00
47753;BME280;2038;51.728;6.674;2022-11-15T05:13:41;100112.22;;;12.55;100.00
47753;BME280;2038;51.728;6.674;2022-11-15T05:16:07;100108.81;;;12.56;100.00
47753;BME280;2038;51.728;6.674;2022-11-15T05:18:33;100109.56;;;12.53;100.00
47753;BME280;2038;51.728;6.674;2022-11-15T05:21:08;100110.94;;;12.64;100.00
47753;BME280;2038;51.728;6.674;2022-11-15T05:23:39;100108.38;;;12.64;100.00
47753;BME280;2038;51.728;6.674;2022-11-15T05:26:07;100104.38;;;12.52;100.00
47753;BME280;2038;51.728;6.674;2022-11-15T05:28:34;100096.94;;;12.56;100.00
47753;BME280;2038;51.728;6.674;2022-11-15T05:31:07;100097.81;;;12.57;100.00
47753;BME280;2038;51.728;6.674;2022-11-15T05:33:43;100097.09;;;12.59;100.00
47753;BME280;2038;51.728;6.674;2022-11-15T05:36:25;100090.28;;;12.60;100.00
47753;BME280;2038;51.728;6.674;2022-11-15T05:39:02;100090.28;;;12.60;100.00
47753;BME280;2038;51.728;6.674;2022-11-15T05:41:40;100086.22;;;12.63;100.00
47753;BME280;2038;51.728;6.674;2022-11-15T05:44:13;100087.78;;;12.61;100.00
47753;BME280;2038;51.728;6.674;2022-11-15T05:46:44;100092.38;;;12.68;100.00
47753;BME280;2038;51.728;6.674;2022-11-15T05:49:14;100087.69;;;12.78;100.00
47753;BME280;2038;51.728;6.674;2022-11-15T05:51:46;100085.22;;;12.79;100.00
47753;BME280;2038;51.728;6.674;2022-11-15T05:54:15;100086.81;;;12.77;100.00
47753;BME280;2038;51.728;6.674;2022-11-15T05:56:43;100089.47;;;12.79;100.00
47753;BME280;2038;51.728;6.674;2022-11-15T05:59:10;100086.94;;;12.80;100.00
47753;BME280;2038;51.728;6.674;2022-11-15T06:01:36;100086.22;;;12.83;100.00
47753;BME280;2038;51.728;6.674;2022-11-15T06:04:04;100092.06;;;12.80;100.00
47753;BME280;2038;51.728;6.674;2022-11-15T06:06:30;100088.72;;;12.81;100.00
47753;BME280;2038;51.728;6.674;2022-11-15T06:08:56;100094.03;;;12.86;100.00
47753;BME280;2038;51.728;6.674;2022-11-15T06:11:23;100090.59;;;12.85;100.00
47753;BME280;2038;51.728;6.674;2022-11-15T06:13:49;100089.94;;;12.89;100.00
47753;BME280;2038;51.728;6.674;2022-11-15T06:16:15;100096.69;;;12.87;100.00
47753;BME280;2038;51.728;6.674;2022-11-15T06:18:41;100092.50;;;12.89;100.00
47753;BME280;2038;51.728;6.674;2022-11-15T06:21:08;100097.56;;;12.88;100.00
47753;BME280;2038;51.728;6.674;2022-11-15T06:23:35;100088.13;;;12.87;100.00
47753;BME280;2038;51.728;6.674;2022-11-15T06:26:02;100095.94;;;12.90;100.00
47753;BME280;2038;51.728;6.674;2022-11-15T06:28:30;100095.00;;;12.88;100.00
47753;BME280;2038;51.728;6.674;2022-11-15T06:31:03;100096.91;;;12.92;100.00
47753;BME280;2038;51.728;6.674;2022-11-15T06:33:34;100097.69;;;12.91;100.00
47753;BME280;2038;51.728;6.674;2022-11-15T06:36:02;100096.72;;;12.89;100.00
47753;BME280;2038;51.728;6.674;2022-11-15T06:38:30;100088.84;;;12.84;100.00
47753;BME280;2038;51.728;6.674;2022-11-15T06:41:03;100089.50;;;12.80;100.00
47753;BME280;2038;51.728;6.674;2022-11-15T06:43:32;100086.59;;;12.73;100.00
47753;BME280;2038;51.728;6.674;2022-11-15T06:45:59;100087.28;;;12.68;100.00
47753;BME280;2038;51.728;6.674;2022-11-15T06:48:27;100087.44;;;12.72;100.00
47753;BME280;2038;51.728;6.674;2022-11-15T06:50:57;100090.78;;;12.71;100.00
47753;BME280;2038;51.728;6.674;2022-11-15T06:53:26;100098.25;;;12.66;100.00
47753;BME280;2038;51.728;6.674;2022-11-15T06:55:53;100105.13;;;12.67;100.00
47753;BME280;2038;51.728;6.674;2022-11-15T06:58:23;100107.06;;;12.73;100.00
47753;BME280;2038;51.728;6.674;2022-11-15T07:00:49;100107.94;;;12.73;100.00
47753;BME280;2038;51.728;6.674;2022-11-15T07:03:15;100107.13;;;12.74;100.00
47753;BME280;2038;51.728;6.674;2022-11-15T07:05:41;100113.84;;;12.72;100.00
47753;BME280;2038;51.728;6.674;2022-11-15T07:08:07;100121.59;;;12.74;100.00
47753;BME280;2038;51.728;6.674;2022-11-15T07:10:33;100122.47;;;12.74;100.00
47753;BME280;2038;51.728;6.674;2022-11-15T07:12:59;100126.63;;;12.72;100.00
47753;BME280;2038;51.728;6.674;2022-11-15T07:15:26;100123.22;;;12.72;100.00
47753;BME280;2038;51.728;6.674;2022-11-15T07:17:52;100120.00;;;12.76;100.00
47753;BME280;2038;51.728;6.674;2022-11-15T07:20:19;100126.84;;;12.77;100.00
47753;BME280;2038;51.728;6.674;2022-11-15T07:22:45;100126.84;;;12.77;100.00
47753;BME280;2038;51.728;6.674;2022-11-15T07:25:12;100125.25;;;12.79;100.00
47753;BME280;2038;51.728;6.674;2022-11-15T07:27:39;100129.72;;;12.83;100.00
47753;BME280;2038;51.728;6.674;2022-11-15T07:30:05;100127.16;;;12.83;100.00
47753;BME280;2038;51.728;6.674;2022-11-15T07:32:32;100129.31;;;12.93;100.00
47753;BME280;2038;51.728;6.674;2022-11-15T07:34:58;100127.03;;;12.99;100.00
47753;BME280;2038;51.728;6.674;2022-11-15T07:37:24;100130.94;;;12.91;100.00
47753;BME280;2038;51.728;6.674;2022-11-15T07:39:51;100132.47;;;12.87;100.00
47753;BME280;2038;51.728;6.674;2022-11-15T07:42:17;100131.19;;;12.97;100.00
47753;BME280;2038;51.728;6.674;2022-11-15T07:45:01;100129.53;;;12.97;100.00
47753;BME280;2038;51.728;6.674;2022-11-15T07:47:28;100141.72;;;13.03;100.00
47753;BME280;2038;51.728;6.674;2022-11-15T07:49:55;100131.91;;;13.12;100.00
47753;BME280;2038;51.728;6.674;2022-11-15T07:52:21;100129.59;;;12.99;100.00
47753;BME280;2038;51.728;6.674;2022-11-15T07:54:47;100136.44;;;13.00;100.00
47753;BME280;2038;51.728;6.674;2022-11-15T07:57:13;100137.91;;;13.12;100.00
47753;BME280;2038;51.728;6.674;2022-11-15T07:59:39;100137.66;;;13.08;100.00
47753;BME280;2038;51.728;6.674;2022-11-15T08:02:05;100140.44;;;13.11;100.00
47753;BME280;2038;51.728;6.674;2022-11-15T08:04:30;100155.78;;;13.11;100.00
47753;BME280;2038;51.728;6.674;2022-11-15T08:06:56;100151.47;;;13.10;100.00
47753;BME280;2038;51.728;6.674;2022-11-15T08:09:22;100147.09;;;13.09;100.00
47753;BME280;2038;51.728;6.674;2022-11-15T08:11:48;100150.28;;;13.03;100.00
47753;BME280;2038;51.728;6.674;2022-11-15T08:14:14;100158.88;;;13.05;100.00
47753;BME280;2038;51.728;6.674;2022-11-15T08:16:40;100158.97;;;13.07;100.00
47753;BME280;2038;51.728;6.674;2022-11-15T08:19:05;100158.97;;;13.07;100.00
47753;BME280;2038;51.728;6.674;2022-11-15T08:21:31;100155.91;;;13.14;100.00
47753;BME280;2038;51.728;6.674;2022-11-15T08:23:57;100161.44;;;13.05;100.00
47753;BME280;2038;51.728;6.674;2022-11-15T08:26:23;100149.41;;;13.03;100.00
47753;BME280;2038;51.728;6.674;2022-11-15T08:28:50;100162.25;;;13.04;100.00
47753;BME280;2038;51.728;6.674;2022-11-15T08:31:18;100168.09;;;13.02;100.00
47753;BME280;2038;51.728;6.674;2022-11-15T08:33:44;100164.09;;;13.07;100.00
47753;BME280;2038;51.728;6.674;2022-11-15T08:36:14;100171.53;;;13.02;100.00
47753;BME280;2038;51.728;6.674;2022-11-15T08:38:42;100167.88;;;12.97;100.00
47753;BME280;2038;51.728;6.674;2022-11-15T08:41:16;100170.44;;;12.97;100.00
47753;BME280;2038;51.728;6.674;2022-11-15T08:43:51;100171.19;;;12.95;100.00
47753;BME280;2038;51.728;6.674;2022-11-15T08:46:17;100174.41;;;12.91;100.00
47753;BME280;2038;51.728;6.674;2022-11-15T08:48:44;100174.47;;;12.92;100.00
47753;BME280;2038;51.728;6.674;2022-11-15T08:51:11;100162.56;;;12.93;100.00
47753;BME280;2038;51.728;6.674;2022-11-15T08:53:37;100166.75;;;12.91;100.00
47753;BME280;2038;51.728;6.674;2022-11-15T08:56:07;100166.78;;;12.92;100.00
47753;BME280;2038;51.728;6.674;2022-11-15T08:58:36;100162.44;;;12.90;100.00
47753;BME280;2038;51.728;6.674;2022-11-15T09:01:03;100169.16;;;12.88;100.00
47753;BME280;2038;51.728;6.674;2022-11-15T09:03:30;100169.09;;;12.86;100.00
47753;BME280;2038;51.728;6.674;2022-11-15T09:05:59;100171.72;;;12.88;100.00
47753;BME280;2038;51.728;6.674;2022-11-15T09:08:31;100164.31;;;12.94;100.00
47753;BME280;2038;51.728;6.674;2022-11-15T09:11:02;100155.03;;;12.96;100.00
47753;BME280;2038;51.728;6.674;2022-11-15T09:13:33;100153.94;;;12.91;100.00
47753;BME280;2038;51.728;6.674;2022-11-15T09:16:00;100153.66;;;12.85;100.00
47753;BME280;2038;51.728;6.674;2022-11-15T09:18:27;100142.50;;;12.83;100.00
47753;BME280;2038;51.728;6.674;2022-11-15T09:21:00;100150.44;;;12.89;100.00
47753;BME280;2038;51.728;6.674;2022-11-15T09:23:27;100159.66;;;12.85;100.00
47753;BME280;2038;51.728;6.674;2022-11-15T09:26:02;100152.19;;;12.72;100.00
47753;BME280;2038;51.728;6.674;2022-11-15T09:28:31;100147.16;;;12.74;100.00
47753;BME280;2038;51.728;6.674;2022-11-15T09:31:00;100145.41;;;12.73;100.00
47753;BME280;2038;51.728;6.674;2022-11-15T09:33:28;100147.75;;;12.68;100.00
47753;BME280;2038;51.728;6.674;2022-11-15T09:36:01;100154.63;;;12.69;100.00
47753;BME280;2038;51.728;6.674;2022-11-15T09:38:30;100155.41;;;12.68;100.00
47753;BME280;2038;51.728;6.674;2022-11-15T09:41:25;100152.28;;;12.74;100.00
47753;BME280;2038;51.728;6.674;2022-11-15T09:49:36;100142.28;;;12.78;100.00
47753;BME280;2038;51.728;6.674;2022-11-15T09:52:03;100134.75;;;12.81;100.00
47753;BME280;2038;51.728;6.674;2022-11-15T09:54:41;100122.03;;;12.83;100.00
47753;BME280;2038;51.728;6.674;2022-11-15T09:57:31;100121.59;;;12.91;100.00
47753;BME280;2038;51.728;6.674;2022-11-15T10:00:21;100123.31;;;12.92;100.00
47753;BME280;2038;51.728;6.674;2022-11-15T10:05:53;100110.53;;;13.10;100.00
47753;BME280;2038;51.728;6.674;2022-11-15T10:11:16;100102.25;;;13.16;100.00
47753;BME280;2038;51.728;6.674;2022-11-15T10:13:48;100097.47;;;13.23;100.00
47753;BME280;2038;51.728;6.674;2022-11-15T10:22:31;100082.50;;;13.32;100.00
47753;BME280;2038;51.728;6.674;2022-11-15T10:25:22;100081.16;;;13.40;100.00
47753;BME280;2038;51.728;6.674;2022-11-15T10:27:59;100089.50;;;13.36;100.00
47753;BME280;2038;51.728;6.674;2022-11-15T10:31:00;100087.56;;;13.50;100.00
47753;BME280;2038;51.728;6.674;2022-11-15T10:33:35;100085.75;;;13.47;100.00
47753;BME280;2038;51.728;6.674;2022-11-15T10:36:20;100079.06;;;13.51;100.00
47753;BME280;2038;51.728;6.674;2022-11-15T10:46:45;100060.06;;;13.46;100.00
47753;BME280;2038;51.728;6.674;2022-11-15T10:49:33;100050.13;;;13.52;100.00
47753;BME280;2038;51.728;6.674;2022-11-15T10:52:15;100048.41;;;13.52;100.00
47753;BME280;2038;51.728;6.674;2022-11-15T10:57:35;100042.00;;;13.62;100.00
47753;BME280;2038;51.728;6.674;2022-11-15T11:00:29;100041.56;;;13.51;100.00
47753;BME280;2038;51.728;6.674;2022-11-15T11:03:27;100041.03;;;13.60;100.00
47753;BME280;2038;51.728;6.674;2022-11-15T11:06:15;100032.44;;;13.79;100.00
47753;BME280;2038;51.728;6.674;2022-11-15T11:09:04;100020.75;;;13.85;100.00
47753;BME280;2038;51.728;6.674;2022-11-15T11:11:50;100021.06;;;13.93;100.00
47753;BME280;2038;51.728;6.674;2022-11-15T11:14:46;100018.69;;;13.97;100.00
47753;BME280;2038;51.728;6.674;2022-11-15T11:29:30;99998.16;;;13.96;100.00
47753;BME280;2038;51.728;6.674;2022-11-15T11:33:16;100008.69;;;14.03;100.00
47753;BME280;2038;51.728;6.674;2022-11-15T11:42:51;100003.50;;;14.02;100.00
47753;BME280;2038;51.728;6.674;2022-11-15T11:46:01;100000.63;;;13.94;100.00
47753;BME280;2038;51.728;6.674;2022-11-15T11:48:50;100002.13;;;13.89;100.00
47753;BME280;2038;51.728;6.674;2022-11-15T11:51:40;100007.84;;;13.82;100.00
47753;BME280;2038;51.728;6.674;2022-11-15T11:54:37;100005.88;;;13.97;100.00
47753;BME280;2038;51.728;6.674;2022-11-15T11:57:40;100011.81;;;13.96;100.00
47753;BME280;2038;51.728;6.674;2022-11-15T12:00:21;100001.56;;;13.96;100.00
47753;BME280;2038;51.728;6.674;2022-11-15T12:03:09;100007.81;;;14.03;100.00
47753;BME280;2038;51.728;6.674;2022-11-15T12:05:48;100006.69;;;13.96;100.00
47753;BME280;2038;51.728;6.674;2022-11-15T12:08:35;99999.69;;;13.92;100.00
47753;BME280;2038;51.728;6.674;2022-11-15T12:11:30;100011.81;;;13.96;98.83
47753;BME280;2038;51.728;6.674;2022-11-15T12:14:12;99996.09;;;13.87;99.22
47753;BME280;2038;51.728;6.674;2022-11-15T12:16:51;99995.22;;;13.87;98.78
47753;BME280;2038;51.728;6.674;2022-11-15T12:19:17;99992.38;;;14.01;98.27
47753;BME280;2038;51.728;6.674;2022-11-15T12:21:55;99992.94;;;14.15;96.85
47753;BME280;2038;51.728;6.674;2022-11-15T12:24:35;99988.28;;;14.27;96.73
47753;BME280;2038;51.728;6.674;2022-11-15T12:27:25;99978.75;;;14.02;97.83
47753;BME280;2038;51.728;6.674;2022-11-15T12:30:14;99972.16;;;14.09;96.46
47753;BME280;2038;51.728;6.674;2022-11-15T12:32:59;99970.66;;;14.14;94.40
47753;BME280;2038;51.728;6.674;2022-11-15T12:35:38;99955.19;;;14.11;95.27
47753;BME280;2038;51.728;6.674;2022-11-15T12:38:11;99949.94;;;14.08;94.88
47753;BME280;2038;51.728;6.674;2022-11-15T12:41:12;99940.63;;;14.10;94.82
47753;BME280;2038;51.728;6.674;2022-11-15T12:43:44;99936.59;;;14.17;92.65
47753;BME280;2038;51.728;6.674;2022-11-15T12:48:59;99927.69;;;14.07;93.50
47753;BME280;2038;51.728;6.674;2022-11-15T13:02:28;99907.63;;;13.95;91.14
47753;BME280;2038;51.728;6.674;2022-11-15T13:17:52;99878.47;;;13.93;91.78
47753;BME280;2038;51.728;6.674;2022-11-15T13:20:28;99874.31;;;13.95;91.02
47753;BME280;2038;51.728;6.674;2022-11-15T13:25:57;99878.34;;;14.13;89.49
47753;BME280;2038;51.728;6.674;2022-11-15T13:28:34;99868.34;;;13.96;88.76
47753;BME280;2038;51.728;6.674;2022-11-15T13:31:37;99875.03;;;13.93;88.71
47753;BME280;2038;51.728;6.674;2022-11-15T13:34:34;99871.75;;;13.95;86.69
47753;BME280;2038;51.728;6.674;2022-11-15T13:37:03;99865.03;;;13.99;86.91
47753;BME280;2038;51.728;6.674;2022-11-15T13:39:34;99859.75;;;13.94;86.94
47753;BME280;2038;51.728;6.674;2022-11-15T13:42:03;99858.59;;;13.86;86.16
47753;BME280;2038;51.728;6.674;2022-11-15T13:44:32;99849.94;;;13.84;87.39
47753;BME280;2038;51.728;6.674;2022-11-15T13:47:05;99848.94;;;13.79;87.61
47753;BME280;2038;51.728;6.674;2022-11-15T13:49:41;99842.66;;;13.71;87.56
47753;BME280;2038;51.728;6.674;2022-11-15T13:52:11;99836.34;;;13.63;87.18
47753;BME280;2038;51.728;6.674;2022-11-15T13:54:59;99834.53;;;13.60;87.76
47753;BME280;2038;51.728;6.674;2022-11-15T13:57:42;99825.81;;;13.55;88.27
47753;BME280;2038;51.728;6.674;2022-11-15T14:00:37;99820.06;;;13.61;88.46
47753;BME280;2038;51.728;6.674;2022-11-15T14:03:26;99818.28;;;13.60;88.28
47753;BME280;2038;51.728;6.674;2022-11-15T14:06:10;99810.97;;;13.69;87.49
47753;BME280;2038;51.728;6.674;2022-11-15T14:09:47;99810.16;;;13.70;88.17
47753;BME280;2038;51.728;6.674;2022-11-15T14:11:56;99806.09;;;13.75;88.80
47753;BME280;2038;51.728;6.674;2022-11-15T14:14:27;99800.19;;;13.78;89.31
47753;BME280;2038;51.728;6.674;2022-11-15T14:16:59;99793.41;;;13.78;89.11
47753;BME280;2038;51.728;6.674;2022-11-15T14:24:34;99784.56;;;13.70;90.35
47753;BME280;2038;51.728;6.674;2022-11-15T14:27:27;99784.78;;;13.76;89.74
47753;BME280;2038;51.728;6.674;2022-11-15T14:29:55;99776.06;;;13.71;90.43
47753;BME280;2038;51.728;6.674;2022-11-15T14:32:22;99783.47;;;13.64;90.59
47753;BME280;2038;51.728;6.674;2022-11-15T14:34:59;99780.06;;;13.65;90.15
47753;BME280;2038;51.728;6.674;2022-11-15T14:37:34;99775.81;;;13.65;90.28
47753;BME280;2038;51.728;6.674;2022-11-15T14:40:02;99775.03;;;13.66;90.84
47753;BME280;2038;51.728;6.674;2022-11-15T14:42:30;99767.22;;;13.63;90.59
47753;BME280;2038;51.728;6.674;2022-11-15T14:44:57;99767.09;;;13.60;91.52
47753;BME280;2038;51.728;6.674;2022-11-15T14:47:23;99766.78;;;13.51;91.97
47753;BME280;2038;51.728;6.674;2022-11-15T14:49:49;99753.63;;;13.42;92.90
47753;BME280;2038;51.728;6.674;2022-11-15T14:52:35;99748.28;;;13.36;92.66
47753;BME280;2038;51.728;6.674;2022-11-15T14:55:13;99751.06;;;13.42;93.13
47753;BME280;2038;51.728;6.674;2022-11-15T14:57:44;99743.50;;;13.45;92.82
47753;BME280;2038;51.728;6.674;2022-11-15T15:00:12;99747.69;;;13.43;92.69
47753;BME280;2038;51.728;6.674;2022-11-15T15:02:41;99737.63;;;13.47;92.64
47753;BME280;2038;51.728;6.674;2022-11-15T15:05:20;99725.84;;;13.52;92.64
47753;BME280;2038;51.728;6.674;2022-11-15T15:07:50;99724.41;;;13.59;92.40
47753;BME280;2038;51.728;6.674;2022-11-15T15:10:18;99725.22;;;13.58;92.27
47753;BME280;2038;51.728;6.674;2022-11-15T15:12:48;99712.41;;;13.58;92.40
47753;BME280;2038;51.728;6.674;2022-11-15T15:15:27;99714.09;;;13.57;92.30
47753;BME280;2038;51.728;6.674;2022-11-15T15:17:58;99711.34;;;13.51;92.44